Time,TemperatureF,DewpointF,PressureIn,WindDirection,WindDirectionDegrees,WindSpeedMPH,WindSpeedGustMPH,Humidity,HourlyPrecipIn,Conditions,Clouds,dailyrainin,SolarRadiationWatts/m^2,SoftwareType,DateUTC
2013-03-10 00:01:00,30.0,29.0,-100.00,WNW,301,4.0,9.0,97,0.00,,,0.00,0.000000,,2013-03-10 06:01:00,
2013-03-10 00:32:00,29.0,28.0,-100.00,NW,306,4.0,10.0,96,0.00,,,0.00,0.000000,,2013-03-10 06:32:00,
2013-03-10 00:42:00,29.0,28.0,-100.00,NW,306,4.0,10.0,96,0.00,,,0.00,0.000000,,2013-03-10 06:42:00,
2013-03-10 00:52:00,29.0,28.0,-100.00,NW,306,4.0,10.0,96,0.00,,,0.00,0.000000,,2013-03-10 06:52:00,
2013-03-10 01:01:00,29.0,28.0,-100.00,NW,306,4.0,10.0,96,0.00,,,0.00,0.000000,,2013-03-10 07:01:00,
2013-03-10 01:32:00,29.0,28.0,-100.00,NW,322,4.0,11.0,95,0.00,,,0.00,0.000000,,2013-03-10 07:32:00,
2013-03-10 01:42:00,29.0,28.0,-100.00,NW,322,4.0,11.0,95,0.00,,,0.00,0.000000,,2013-03-10 07:42:00,
2013-03-10 01:52:00,29.0,28.0,-100.00,NW,322,4.0,11.0,95,0.00,,,0.00,0.000000,,2013-03-10 07:52:00,
2013-03-10 03:01:00,29.0,28.0,-100.00,NW,322,4.0,11.0,95,0.00,,,0.00,0.000000,,2013-03-10 08:01:00,
2013-03-10 03:32:00,29.0,27.0,-100.00,NW,325,5.0,11.0,94,0.00,,,0.00,0.000000,,2013-03-10 08:32:00,
2013-03-10 03:42:00,29.0,27.0,-100.00,NW,325,5.0,11.0,94,0.00,,,0.00,0.000000,,2013-03-10 08:42:00,
2013-03-10 03:52:00,29.0,27.0,-100.00,NW,325,5.0,11.0,94,0.00,,,0.00,0.000000,,2013-03-10 08:52:00,
2013-03-10 04:01:00,29.0,27.0,-100.00,NW,325,5.0,11.0,94,0.00,,,0.00,0.000000,,2013-03-10 09:01:00,
2013-03-10 04:32:00,29.0,27.0,-100.00,NNW,337,4.0,12.0,94,0.00,,,0.00,0.000000,,2013-03-10 09:32:00,
2013-03-10 04:42:00,29.0,27.0,-100.00,NNW,337,4.0,12.0,94,0.00,,,0.00,0.000000,,2013-03-10 09:42:00,
2013-03-10 04:52:00,29.0,27.0,-100.00,NNW,337,4.0,12.0,94,0.00,,,0.00,0.000000,,2013-03-10 09:52:00,
2013-03-10 05:01:00,29.0,27.0,-100.00,NNW,337,4.0,12.0,94,0.00,,,0.00,0.000000,,2013-03-10 10:01:00,
2013-03-10 05:32:00,29.0,28.0,-100.00,NNW,337,5.0,11.0,95,0.00,,,0.00,0.000000,,2013-03-10 10:32:00,
2013-03-10 05:42:00,29.0,28.0,-100.00,NNW,337,5.0,11.0,95,0.00,,,0.00,0.000000,,2013-03-10 10:42:00,
2013-03-10 05:52:00,29.0,28.0,-100.00,NNW,337,5.0,11.0,95,0.00,,,0.00,0.000000,,2013-03-10 10:52:00,
2013-03-10 06:01:00,29.0,28.0,-100.00,NNW,337,5.0,11.0,95,0.00,,,0.00,0.000000,,2013-03-10 11:01:00,
2013-03-10 09:32:00,27.0,25.0,-100.00,NNW,335,5.0,12.0,93,-99.99,,,0.00,2.000000,,2013-03-10 14:32:00,
2013-03-10 09:42:00,27.0,25.0,-100.00,NNW,335,5.0,12.0,93,-99.99,,,0.00,2.000000,,2013-03-10 14:42:00,
2013-03-10 09:52:00,27.0,25.0,-100.00,NNW,335,5.0,12.0,93,-99.99,,,0.00,2.000000,,2013-03-10 14:52:00,
2013-03-10 10:01:00,27.0,25.0,-100.00,NNW,335,5.0,12.0,93,-99.99,,,0.00,2.000000,,2013-03-10 15:01:00,
2013-03-10 10:32:00,27.0,25.0,-100.00,NW,321,5.0,12.0,92,0.00,,,0.00,8.000000,,2013-03-10 15:32:00,
2013-03-10 10:42:00,27.0,25.0,-100.00,NW,321,5.0,12.0,92,0.00,,,0.00,8.000000,,2013-03-10 15:42:00,
2013-03-10 10:52:00,27.0,25.0,-100.00,NW,321,5.0,12.0,92,0.00,,,0.00,8.000000,,2013-03-10 15:52:00,
2013-03-10 11:01:00,27.0,25.0,-100.00,NW,321,5.0,12.0,92,0.00,,,0.00,8.000000,,2013-03-10 16:01:00,
2013-03-10 11:22:00,28.0,25.0,-100.00,North,351,5.0,11.0,87,0.00,,,0.00,21.000000,,2013-03-10 16:22:00,
2013-03-10 11:32:00,28.0,25.0,-100.00,North,351,5.0,11.0,87,0.00,,,0.00,21.000000,,2013-03-10 16:32:00,
2013-03-10 11:42:00,28.0,25.0,-100.00,North,351,5.0,11.0,87,0.00,,,0.00,21.000000,,2013-03-10 16:42:00,
2013-03-10 11:52:00,28.0,25.0,-100.00,North,351,5.0,11.0,87,0.00,,,0.00,21.000000,,2013-03-10 16:52:00,
2013-03-10 12:01:00,28.0,25.0,-100.00,North,351,5.0,11.0,87,0.00,,,0.00,21.000000,,2013-03-10 17:01:00,
2013-03-10 14:32:00,26.0,21.0,-100.00,North,350,4.0,11.0,82,-99.99,,,0.00,26.000000,,2013-03-10 19:32:00,
2013-03-10 14:42:00,26.0,21.0,-100.00,North,350,4.0,11.0,82,-99.99,,,0.00,26.000000,,2013-03-10 19:42:00,
2013-03-10 14:53:00,26.0,21.0,-100.00,North,350,4.0,11.0,82,-99.99,,,0.00,26.000000,,2013-03-10 19:53:00,
2013-03-10 15:02:00,26.0,21.0,-100.00,North,350,4.0,11.0,82,-99.99,,,0.00,26.000000,,2013-03-10 20:02:00,
2013-03-10 15:22:00,26.0,18.0,-100.00,NNW,342,4.0,8.0,72,0.00,,,0.00,45.000000,,2013-03-10 20:22:00,
2013-03-10 15:32:00,26.0,18.0,-100.00,NNW,342,4.0,8.0,72,0.00,,,0.00,45.000000,,2013-03-10 20:32:00,
2013-03-10 15:43:00,26.0,18.0,-100.00,NNW,342,4.0,8.0,72,0.00,,,0.00,45.000000,,2013-03-10 20:43:00,
2013-03-10 15:53:00,26.0,18.0,-100.00,NNW,342,4.0,8.0,72,0.00,,,0.00,45.000000,,2013-03-10 20:53:00,
2013-03-10 16:02:00,26.0,18.0,-100.00,NNW,342,4.0,8.0,72,0.00,,,0.00,45.000000,,2013-03-10 21:02:00,
2013-03-10 16:33:00,28.0,20.0,-100.00,NNE,21,3.0,10.0,70,0.02,,,0.02,54.000000,,2013-03-10 21:33:00,
2013-03-10 16:43:00,28.0,20.0,-100.00,NNE,21,3.0,10.0,70,0.02,,,0.02,54.000000,,2013-03-10 21:43:00,
2013-03-10 16:53:00,28.0,20.0,-100.00,NNE,21,3.0,10.0,70,0.02,,,0.02,54.000000,,2013-03-10 21:53:00,
2013-03-10 17:02:00,28.0,20.0,-100.00,NNE,21,3.0,10.0,70,0.02,,,0.02,54.000000,,2013-03-10 22:02:00,
2013-03-10 17:32:00,27.0,20.0,-100.00,North,1,5.0,13.0,73,0.00,,,0.02,35.000000,,2013-03-10 22:32:00,
2013-03-10 17:43:00,27.0,20.0,-100.00,North,1,5.0,13.0,73,0.00,,,0.02,35.000000,,2013-03-10 22:43:00,
2013-03-10 17:53:00,27.0,20.0,-100.00,North,1,5.0,13.0,73,0.00,,,0.02,35.000000,,2013-03-10 22:53:00,
2013-03-10 18:03:00,27.0,20.0,-100.00,North,1,5.0,13.0,73,0.00,,,0.02,35.000000,,2013-03-10 23:03:00,
2013-03-10 18:33:00,25.0,18.0,-100.00,North,11,4.0,11.0,73,0.01,,,0.03,23.000000,,2013-03-10 23:33:00,
2013-03-10 18:43:00,25.0,18.0,-100.00,North,11,4.0,11.0,73,0.01,,,0.03,23.000000,,2013-03-10 23:43:00,
2013-03-10 18:52:00,25.0,18.0,-100.00,North,11,4.0,11.0,73,0.01,,,0.03,23.000000,,2013-03-10 23:52:00,
2013-03-10 19:02:00,25.0,18.0,-100.00,North,11,4.0,11.0,73,0.01,,,0.03,23.000000,,2013-03-11 00:02:00,
2013-03-10 19:33:00,22.0,16.0,-100.00,NNE,30,2.0,9.0,78,0.00,,,0.03,7.000000,,2013-03-11 00:33:00,
2013-03-10 19:43:00,22.0,16.0,-100.00,NNE,30,2.0,9.0,78,0.00,,,0.03,7.000000,,2013-03-11 00:43:00,
2013-03-10 19:53:00,22.0,16.0,-100.00,NNE,30,2.0,9.0,78,0.00,,,0.03,7.000000,,2013-03-11 00:53:00,
2013-03-10 20:02:00,22.0,16.0,-100.00,NNE,30,2.0,9.0,78,0.00,,,0.03,7.000000,,2013-03-11 01:02:00,
2013-03-10 20:33:00,19.0,15.0,-100.00,NNE,22,4.0,7.0,84,0.00,,,0.03,0.000000,,2013-03-11 01:33:00,
2013-03-10 20:43:00,19.0,15.0,-100.00,NNE,22,4.0,7.0,84,0.00,,,0.03,0.000000,,2013-03-11 01:43:00,
2013-03-10 20:53:00,19.0,15.0,-100.00,NNE,22,4.0,7.0,84,0.00,,,0.03,0.000000,,2013-03-11 01:53:00,
2013-03-10 21:02:00,19.0,15.0,-100.00,NNE,22,4.0,7.0,84,0.00,,,0.03,0.000000,,2013-03-11 02:02:00,
2013-03-10 21:32:00,20.0,15.0,-100.00,NE,39,5.0,9.0,82,0.00,,,0.03,0.000000,,2013-03-11 02:32:00,
2013-03-10 21:42:00,20.0,15.0,-100.00,NE,39,5.0,9.0,82,0.00,,,0.03,0.000000,,2013-03-11 02:42:00,
2013-03-10 21:52:00,20.0,15.0,-100.00,NE,39,5.0,9.0,82,0.00,,,0.03,0.000000,,2013-03-11 02:52:00,
2013-03-10 22:02:00,20.0,15.0,-100.00,NE,39,5.0,9.0,82,0.00,,,0.03,0.000000,,2013-03-11 03:02:00,
2013-03-10 22:32:00,20.0,14.0,-100.00,NE,40,6.0,13.0,78,0.00,,,0.03,0.000000,,2013-03-11 03:32:00,
2013-03-10 22:43:00,20.0,14.0,-100.00,NE,40,6.0,13.0,78,0.00,,,0.03,0.000000,,2013-03-11 03:43:00,
2013-03-10 22:53:00,20.0,14.0,-100.00,NE,40,6.0,13.0,78,0.00,,,0.03,0.000000,,2013-03-11 03:53:00,
2013-03-10 23:02:00,20.0,14.0,-100.00,NE,40,6.0,13.0,78,0.00,,,0.03,0.000000,,2013-03-11 04:02:00,
2013-03-10 23:22:00,19.0,14.0,-100.00,NE,54,5.0,11.0,80,0.00,,,0.03,0.000000,,2013-03-11 04:22:00,
2013-03-10 23:33:00,19.0,14.0,-100.00,NE,54,5.0,11.0,80,0.00,,,0.03,0.000000,,2013-03-11 04:33:00,
2013-03-10 23:43:00,19.0,14.0,-100.00,NE,54,5.0,11.0,80,0.00,,,0.03,0.000000,,2013-03-11 04:43:00,
2013-03-10 23:53:00,19.0,14.0,-100.00,NE,54,5.0,11.0,80,0.00,,,0.03,0.000000,,2013-03-11 04:53:00,